createdAt,value
2022-10-19T00:01:03.079Z,102473.06
2022-10-19T00:03:30.155Z,102472.34
2022-10-19T00:05:57.040Z,102470.78
2022-10-19T00:08:23.894Z,102472.63
2022-10-19T00:10:50.632Z,102467.28
2022-10-19T00:13:17.440Z,102464.66
2022-10-19T00:15:45.311Z,102464.56
2022-10-19T00:18:13.549Z,102459.94
2022-10-19T00:20:40.464Z,102455.59
2022-10-19T00:23:07.427Z,102460.22
2022-10-19T00:25:34.245Z,102461.88
2022-10-19T00:28:01.104Z,102465.22
2022-10-19T00:30:27.943Z,102462.22
2022-10-19T00:32:54.747Z,102464.94
2022-10-19T00:35:23.022Z,102468.56
2022-10-19T00:37:49.779Z,102468.75
2022-10-19T00:40:16.760Z,102467.66
2022-10-19T00:42:43.805Z,102462.22
2022-10-19T00:45:15.983Z,102456.69
2022-10-19T00:47:44.986Z,102447.03
2022-10-19T00:50:14.569Z,102450.53
2022-10-19T00:52:42.926Z,102447.75
2022-10-19T00:55:11.278Z,102454.06
2022-10-19T00:57:38.479Z,102457.22
2022-10-19T01:00:07.667Z,102444.84
2022-10-19T01:02:35.338Z,102442.44
2022-10-19T01:05:03.218Z,102459.38
2022-10-19T01:07:30.614Z,102452.13
2022-10-19T01:10:00.580Z,102455.66
2022-10-19T01:12:58.407Z,102446.50
2022-10-19T01:15:32.840Z,102447.75
2022-10-19T01:18:07.808Z,102447.44
2022-10-19T01:21:01.444Z,102452.94
2022-10-19T01:23:51.441Z,102446.28
2022-10-19T01:26:36.513Z,102462.47
2022-10-19T01:29:13.771Z,102460.31
2022-10-19T01:31:48.266Z,102468.84
2022-10-19T01:34:20.028Z,102463.09
2022-10-19T01:36:59.689Z,102457.00
2022-10-19T01:39:33.493Z,102447.66
2022-10-19T01:42:06.400Z,102434.47
2022-10-19T01:44:40.061Z,102424.13
2022-10-19T01:47:15.721Z,102430.97
2022-10-19T01:49:44.768Z,102421.50
2022-10-19T01:52:16.073Z,102411.03
2022-10-19T01:54:47.673Z,102419.66
2022-10-19T01:57:20.877Z,102417.69
2022-10-19T01:59:49.339Z,102415.91
2022-10-19T02:02:18.678Z,102420.06
2022-10-19T02:04:46.909Z,102412.16
2022-10-19T02:07:14.233Z,102406.78
2022-10-19T02:09:41.030Z,102406.06
2022-10-19T02:12:11.399Z,102399.94
2022-10-19T02:14:42.851Z,102396.09
2022-10-19T02:17:13.914Z,102392.59
2022-10-19T02:19:42.168Z,102395.47
2022-10-19T02:22:10.157Z,102392.06
2022-10-19T02:24:36.955Z,102401.19
2022-10-19T02:27:05.601Z,102388.31
2022-10-19T02:29:33.110Z,102382.63
2022-10-19T02:32:00.160Z,102380.75
2022-10-19T02:34:27.145Z,102362.47
2022-10-19T02:36:55.773Z,102373.91
2022-10-19T02:39:23.174Z,102361.16
2022-10-19T02:41:55.176Z,102352.22
2022-10-19T02:44:26.814Z,102350.56
2022-10-19T02:46:58.108Z,102349.91
2022-10-19T02:49:25.542Z,102341.34
2022-10-19T02:52:00.861Z,102337.59
2022-10-19T02:54:28.312Z,102341.94
2022-10-19T02:56:55.210Z,102346.94
2022-10-19T02:59:22.729Z,102341.94
2022-10-19T03:01:49.848Z,102340.41
2022-10-19T03:04:16.887Z,102340.41
2022-10-19T03:06:43.991Z,102342.78
2022-10-19T03:09:12.245Z,102342.56
2022-10-19T03:11:39.096Z,102337.19
2022-10-19T03:14:05.889Z,102342.03
2022-10-19T03:16:32.846Z,102339.53
2022-10-19T03:18:59.568Z,102349.22
2022-10-19T03:21:26.353Z,102349.63
2022-10-19T03:23:53.099Z,102353.06
2022-10-19T03:26:21.301Z,102349.00
2022-10-19T03:28:48.151Z,102346.72
2022-10-19T03:31:14.982Z,102342.66
2022-10-19T03:33:41.766Z,102338.94
2022-10-19T03:36:17.191Z,102340.25
2022-10-19T03:38:44.181Z,102325.16
2022-10-19T03:41:12.397Z,102340.41
2022-10-19T03:43:41.307Z,102336.56
2022-10-19T03:46:08.769Z,102332.63
2022-10-19T03:48:35.845Z,102337.19
2022-10-19T03:51:05.319Z,102327.56
2022-10-19T03:53:33.221Z,102330.84
2022-10-19T03:56:04.913Z,102323.81
2022-10-19T03:58:34.124Z,102324.94
2022-10-19T04:01:06.332Z,102316.97
2022-10-19T04:03:33.278Z,102314.09
2022-10-19T04:06:03.851Z,102314.06
2022-10-19T04:08:31.193Z,102313.22
2022-10-19T04:11:01.495Z,102319.88
2022-10-19T04:13:29.039Z,102320.09
2022-10-19T04:15:56.057Z,102319.03
2022-10-19T04:18:24.201Z,102314.66
2022-10-19T04:20:56.150Z,102323.59
2022-10-19T04:23:23.044Z,102328.16
2022-10-19T04:25:49.978Z,102325.88
2022-10-19T04:28:16.744Z,102329.81
2022-10-19T04:30:43.586Z,102320.19
2022-10-19T04:33:10.448Z,102324.44
2022-10-19T04:35:38.590Z,102321.13
2022-10-19T04:38:05.401Z,102327.41
2022-10-19T04:40:34.842Z,102321.53
2022-10-19T04:43:01.631Z,102320.09
2022-10-19T04:45:28.450Z,102322.97
2022-10-19T04:47:56.635Z,102314.72
2022-10-19T04:50:23.705Z,102303.19
2022-10-19T04:52:51.939Z,102310.84
2022-10-19T04:55:18.761Z,102310.03
2022-10-19T04:57:45.544Z,102310.34
2022-10-19T05:00:13.711Z,102297.50
2022-10-19T05:02:43.718Z,102300.47
2022-10-19T05:05:10.486Z,102291.78
2022-10-19T05:07:37.321Z,102281.13
2022-10-19T05:10:06.727Z,102276.75
2022-10-19T05:12:35.301Z,102273.94
2022-10-19T05:15:02.167Z,102272.81
2022-10-19T05:17:30.288Z,102280.50
2022-10-19T05:19:57.448Z,102283.59
2022-10-19T05:22:24.430Z,102280.59
2022-10-19T05:24:54.497Z,102285.66
2022-10-19T05:27:26.115Z,102291.78
2022-10-19T05:29:52.880Z,102293.53
2022-10-19T05:32:19.700Z,102309.63
2022-10-19T05:34:46.527Z,102311.38
2022-10-19T05:37:13.301Z,102314.28
2022-10-19T05:39:40.261Z,102298.00
2022-10-19T05:42:06.997Z,102297.06
2022-10-19T05:44:36.060Z,102299.13
2022-10-19T05:47:02.910Z,102287.75
2022-10-19T05:49:30.155Z,102298.53
2022-10-19T05:51:56.956Z,102296.53
2022-10-19T05:54:26.357Z,102282.25
2022-10-19T05:56:55.360Z,102281.94
2022-10-19T05:59:23.637Z,102284.84
2022-10-19T06:01:51.784Z,102282.38
2022-10-19T06:04:19.498Z,102281.75
2022-10-19T06:06:46.334Z,102278.84
2022-10-19T06:09:13.266Z,102274.81
2022-10-19T06:11:41.986Z,102267.75
2022-10-19T06:14:12.295Z,102266.31
2022-10-19T06:16:39.115Z,102261.00
2022-10-19T06:19:07.443Z,102246.47
2022-10-19T06:21:34.721Z,102248.97
2022-10-19T06:24:03.640Z,102245.16
2022-10-19T06:26:32.076Z,102241.75
2022-10-19T06:29:00.728Z,102241.03
2022-10-19T06:31:27.771Z,102241.84
2022-10-19T06:33:55.680Z,102237.78
2022-10-19T06:36:25.995Z,102239.25
2022-10-19T06:38:53.283Z,102242.97
2022-10-19T06:41:20.988Z,102237.16
2022-10-19T06:43:51.407Z,102229.50
2022-10-19T06:46:20.719Z,102224.34
2022-10-19T06:48:51.643Z,102229.88
2022-10-19T06:51:18.448Z,102242.97
2022-10-19T06:53:46.953Z,102240.38
2022-10-19T06:56:14.013Z,102234.84
2022-10-19T06:58:40.827Z,102238.16
2022-10-19T07:01:08.732Z,102237.44
2022-10-19T07:03:36.582Z,102236.25
2022-10-19T07:06:05.439Z,102237.84
2022-10-19T07:08:33.238Z,102243.66
2022-10-19T07:11:04.745Z,102244.47
2022-10-19T07:13:31.625Z,102231.44
2022-10-19T07:15:59.233Z,102238.25
2022-10-19T07:18:26.763Z,102236.78
2022-10-19T07:20:57.762Z,102224.09
2022-10-19T07:23:25.314Z,102227.13
2022-10-19T07:25:53.729Z,102222.59
2022-10-19T07:28:22.296Z,102216.19
2022-10-19T07:30:49.221Z,102208.03
2022-10-19T07:35:47.889Z,102212.00
2022-10-19T07:38:14.719Z,102212.66
2022-10-19T07:40:44.855Z,102208.91
2022-10-19T07:43:14.178Z,102219.84
2022-10-19T07:45:42.407Z,102221.78
2022-10-19T07:48:09.160Z,102224.78
2022-10-19T07:50:36.095Z,102223.84
2022-10-19T07:53:05.290Z,102216.88
2022-10-19T07:55:34.175Z,102214.22
2022-10-19T07:58:02.135Z,102212.03
2022-10-19T08:00:29.805Z,102208.31
2022-10-19T08:03:31.189Z,102209.59
2022-10-19T08:05:45.043Z,102204.78
2022-10-19T08:08:11.802Z,102210.19
2022-10-19T08:10:38.811Z,102210.38
2022-10-19T08:13:05.502Z,102208.22
2022-10-19T08:15:32.553Z,102210.06
2022-10-19T08:18:01.479Z,102216.97
2022-10-19T08:20:28.313Z,102203.94
2022-10-19T08:22:58.107Z,102219.28
2022-10-19T08:25:26.057Z,102202.63
2022-10-19T08:27:52.936Z,102207.63
2022-10-19T08:30:19.807Z,102206.22
2022-10-19T08:32:46.626Z,102212.72
2022-10-19T08:35:14.867Z,102199.81
2022-10-19T08:37:45.281Z,102201.28
2022-10-19T08:40:17.642Z,102199.78
2022-10-19T08:42:52.921Z,102187.59
2022-10-19T08:45:39.380Z,102189.72
2022-10-19T08:48:23.826Z,102198.66
2022-10-19T08:50:54.761Z,102183.13
2022-10-19T08:53:27.955Z,102186.34
2022-10-19T08:56:04.919Z,102180.59
2022-10-19T08:58:55.453Z,102184.75
2022-10-19T09:01:35.395Z,102172.03
2022-10-19T09:04:10.048Z,102175.41
2022-10-19T09:06:49.780Z,102169.78
2022-10-19T09:09:20.568Z,102172.13
2022-10-19T09:11:49.687Z,102169.44
2022-10-19T09:14:21.047Z,102168.50
2022-10-19T09:16:48.001Z,102167.19
2022-10-19T09:19:22.944Z,102170.19
2022-10-19T09:21:54.493Z,102161.88
2022-10-19T09:24:30.377Z,102163.22
2022-10-19T09:26:59.807Z,102165.22
2022-10-19T09:29:34.220Z,102166.72
2022-10-19T09:32:05.266Z,102155.47
2022-10-19T09:34:36.800Z,102143.84
2022-10-19T09:37:04.954Z,102135.22
2022-10-19T09:39:32.136Z,102136.97
2022-10-19T09:42:05.095Z,102127.19
2022-10-19T09:44:32.723Z,102142.69
2022-10-19T09:47:13.927Z,102138.59
2022-10-19T09:49:43.165Z,102138.88
2022-10-19T09:52:33.802Z,102123.66
2022-10-19T09:55:03.249Z,102121.53
2022-10-19T09:57:30.746Z,102114.53
2022-10-19T09:59:57.974Z,102109.56
2022-10-19T10:02:31.475Z,102117.69
2022-10-19T10:05:06.470Z,102105.88
2022-10-19T10:07:37.719Z,102113.00
2022-10-19T10:10:11.245Z,102106.50
2022-10-19T10:12:40.331Z,102097.16
2022-10-19T10:15:08.112Z,102102.88
2022-10-19T10:17:36.888Z,102094.59
2022-10-19T10:20:20.978Z,102097.19
2022-10-19T10:22:54.383Z,102098.06
2022-10-19T10:25:21.929Z,102093.50
2022-10-19T10:27:56.021Z,102080.50
2022-10-19T10:30:22.984Z,102086.34
2022-10-19T10:32:52.559Z,102085.09
2022-10-19T10:35:23.282Z,102075.78
2022-10-19T10:37:50.427Z,102074.44
2022-10-19T10:40:23.785Z,102066.28
2022-10-19T10:42:53.627Z,102080.78
2022-10-19T10:45:24.598Z,102066.16
2022-10-19T10:47:52.934Z,102078.34
2022-10-19T10:50:22.911Z,102059.69
2022-10-19T10:53:00.885Z,102063.13
2022-10-19T10:55:29.662Z,102059.34
2022-10-19T10:58:11.894Z,102056.97
2022-10-19T11:00:40.385Z,102052.84
2022-10-19T11:03:14.581Z,102042.38
2022-10-19T11:05:45.398Z,102050.41
2022-10-19T11:08:23.802Z,102054.91
2022-10-19T11:10:58.936Z,102038.75
2022-10-19T11:13:31.027Z,102035.44
2022-10-19T11:16:02.732Z,102032.75
2022-10-19T11:18:32.603Z,102029.84
2022-10-19T11:21:06.131Z,102033.66
2022-10-19T11:23:45.993Z,102028.13
2022-10-19T11:26:33.641Z,102027.59
2022-10-19T11:29:13.985Z,102029.97
2022-10-19T11:31:47.222Z,102010.31
2022-10-19T11:34:37.940Z,102008.63
2022-10-19T11:37:17.231Z,102007.63
2022-10-19T11:39:55.674Z,102002.72
2022-10-19T11:42:34.617Z,101999.75
2022-10-19T11:45:13.606Z,101993.44
2022-10-19T11:47:54.598Z,101981.00
2022-10-19T11:50:33.429Z,101985.16
2022-10-19T11:53:07.732Z,101972.47
2022-10-19T11:55:42.092Z,101968.69
2022-10-19T11:58:31.152Z,101962.69
2022-10-19T12:01:14.364Z,101951.13
2022-10-19T12:04:17.477Z,101953.19
2022-10-19T12:06:52.051Z,101946.13
2022-10-19T12:09:28.272Z,101932.53
2022-10-19T12:12:09.225Z,101922.56
2022-10-19T12:14:41.129Z,101921.63
2022-10-19T12:19:46.505Z,101922.75
2022-10-19T12:22:19.279Z,101929.38
2022-10-19T12:24:46.566Z,101927.81
2022-10-19T12:27:16.532Z,101919.75
2022-10-19T12:29:49.035Z,101910.84
2022-10-19T12:32:19.885Z,101911.72
2022-10-19T12:34:56.518Z,101908.16
2022-10-19T12:37:28.179Z,101904.28
2022-10-19T12:40:00.891Z,101891.28
2022-10-19T12:42:32.599Z,101887.56
2022-10-19T12:45:25.318Z,101886.84
2022-10-19T12:48:23.002Z,101888.97
2022-10-19T12:51:02.199Z,101883.00
2022-10-19T12:53:31.373Z,101874.78
2022-10-19T12:56:01.425Z,101859.00
2022-10-19T12:58:34.391Z,101860.50
2022-10-19T13:01:05.676Z,101845.72
2022-10-19T13:03:35.189Z,101843.00
2022-10-19T13:06:07.089Z,101850.16
2022-10-19T13:08:41.549Z,101833.84
2022-10-19T13:11:14.699Z,101825.16
2022-10-19T13:13:55.243Z,101826.31
2022-10-19T13:17:00.360Z,101808.88
2022-10-19T13:19:27.425Z,101811.03
2022-10-19T13:22:14.773Z,101810.09
2022-10-19T13:27:26.095Z,101804.19
2022-10-19T13:29:53.172Z,101806.31
2022-10-19T13:32:43.497Z,101794.25
2022-10-19T13:35:30.282Z,101781.22
2022-10-19T13:38:28.073Z,101790.41
2022-10-19T13:41:14.187Z,101782.22
2022-10-19T13:43:51.721Z,101784.06
2022-10-19T13:46:21.511Z,101777.72
2022-10-19T13:49:15.158Z,101769.78
2022-10-19T13:51:54.243Z,101773.34
2022-10-19T13:54:42.666Z,101766.81
2022-10-19T13:57:23.028Z,101771.81
2022-10-19T14:00:18.997Z,101759.91
2022-10-19T14:03:04.322Z,101766.00
2022-10-19T14:05:55.831Z,101764.03
2022-10-19T14:08:54.471Z,101754.81
2022-10-19T14:11:26.270Z,101757.97
2022-10-19T14:14:12.925Z,101763.81
2022-10-19T14:16:50.760Z,101754.22
2022-10-19T14:19:27.436Z,101744.38
2022-10-19T14:21:58.618Z,101735.38
2022-10-19T14:24:29.587Z,101737.97
2022-10-19T14:26:57.131Z,101730.81
2022-10-19T14:29:24.048Z,101725.03
2022-10-19T14:31:52.288Z,101713.31
2022-10-19T14:34:19.421Z,101712.84
2022-10-19T14:36:48.799Z,101709.13
2022-10-19T14:39:34.870Z,101695.56
2022-10-19T14:42:05.871Z,101700.09
2022-10-19T14:44:39.678Z,101697.59
2022-10-19T14:47:18.066Z,101691.53
2022-10-19T14:49:45.034Z,101681.56
2022-10-19T14:52:19.104Z,101679.09
2022-10-19T14:54:51.780Z,101677.81
2022-10-19T14:57:24.819Z,101690.97
2022-10-19T14:59:54.934Z,101676.94
2022-10-19T15:02:25.468Z,101673.53
2022-10-19T15:04:54.413Z,101669.72
2022-10-19T15:07:24.609Z,101659.63
2022-10-19T15:09:56.726Z,101642.41
2022-10-19T15:12:27.541Z,101649.06
2022-10-19T15:14:54.860Z,101654.34
2022-10-19T15:17:25.222Z,101649.06
2022-10-19T15:19:52.778Z,101636.78
2022-10-19T15:22:21.951Z,101635.66
2022-10-19T15:25:02.687Z,101634.09
2022-10-19T15:27:32.566Z,101629.66
2022-10-19T15:30:01.132Z,101628.09
2022-10-19T15:32:32.274Z,101627.63
2022-10-19T15:34:59.409Z,101626.25
2022-10-19T15:39:59.522Z,101621.75
2022-10-19T15:42:37.604Z,101617.59
2022-10-19T15:45:25.169Z,101614.88
2022-10-19T15:48:23.877Z,101604.28
2022-10-19T15:50:53.230Z,101600.97
2022-10-19T15:53:20.790Z,101603.88
2022-10-19T15:55:47.690Z,101597.81
2022-10-19T15:58:15.258Z,101597.69
2022-10-19T16:00:42.331Z,101593.81
2022-10-19T16:03:09.339Z,101586.91
2022-10-19T16:05:37.739Z,101582.53
2022-10-19T16:08:07.866Z,101589.22
2022-10-19T16:10:37.040Z,101590.19
2022-10-19T16:13:03.923Z,101587.91
2022-10-19T16:15:30.717Z,101593.41
2022-10-19T16:18:00.006Z,101599.00
2022-10-19T16:20:28.946Z,101593.72
2022-10-19T16:22:57.786Z,101597.53
2022-10-19T16:25:24.620Z,101596.56
2022-10-19T16:27:51.599Z,101592.06
2022-10-19T16:30:18.448Z,101587.34
2022-10-19T16:32:47.993Z,101580.03
2022-10-19T16:35:15.015Z,101588.06
2022-10-19T16:37:41.742Z,101567.22
2022-10-19T16:40:11.087Z,101564.59
2022-10-19T16:42:38.104Z,101565.31
2022-10-19T16:45:05.965Z,101559.94
2022-10-19T16:47:32.784Z,101555.66
2022-10-19T16:50:01.108Z,101555.94
2022-10-19T16:52:28.264Z,101551.50
2022-10-19T16:54:55.294Z,101562.75
2022-10-19T16:57:23.640Z,101570.41
2022-10-19T17:02:23.694Z,101563.13
2022-10-19T17:04:50.594Z,101566.47
2022-10-19T17:07:19.078Z,101575.13
2022-10-19T17:09:46.296Z,101568.56
2022-10-19T17:12:14.427Z,101553.66
2022-10-19T17:14:43.466Z,101546.00
2022-10-19T17:17:11.110Z,101534.97
2022-10-19T17:19:38.135Z,101534.56
2022-10-19T17:22:05.628Z,101544.97
2022-10-19T17:24:32.549Z,101549.13
2022-10-19T17:27:02.723Z,101546.41
2022-10-19T17:29:30.126Z,101549.47
2022-10-19T17:31:58.929Z,101551.00
2022-10-19T17:34:27.351Z,101545.25
2022-10-19T17:36:54.639Z,101545.03
2022-10-19T17:39:25.789Z,101539.00
2022-10-19T17:41:57.574Z,101544.50
2022-10-19T17:44:24.465Z,101532.56
2022-10-19T17:46:51.204Z,101531.97
2022-10-19T17:49:19.385Z,101522.72
2022-10-19T17:51:46.279Z,101531.16
2022-10-19T17:54:14.386Z,101537.88
2022-10-19T17:56:41.795Z,101525.84
2022-10-19T17:59:09.176Z,101538.47
2022-10-19T18:01:36.930Z,101537.59
2022-10-19T18:04:03.785Z,101539.16
2022-10-19T18:06:33.269Z,101527.97
2022-10-19T18:09:02.054Z,101532.00
2022-10-19T18:11:30.897Z,101523.72
2022-10-19T18:14:00.133Z,101527.06
2022-10-19T18:16:28.967Z,101523.97
2022-10-19T18:18:57.457Z,101514.06
2022-10-19T18:21:27.382Z,101504.97
2022-10-19T18:23:57.444Z,101505.56
2022-10-19T18:26:26.884Z,101506.38
2022-10-19T18:28:55.180Z,101494.72
2022-10-19T18:31:24.237Z,101491.91
2022-10-19T18:33:57.422Z,101487.09
2022-10-19T18:36:24.413Z,101493.16
2022-10-19T18:38:52.101Z,101479.22
2022-10-19T18:41:20.815Z,101484.53
2022-10-19T18:43:51.756Z,101487.00
2022-10-19T18:46:19.198Z,101481.94
2022-10-19T18:48:46.666Z,101474.84
2022-10-19T18:51:15.628Z,101473.50
2022-10-19T18:53:43.460Z,101468.66
2022-10-19T18:56:12.979Z,101455.19
2022-10-19T18:58:41.782Z,101454.13
2022-10-19T19:01:11.055Z,101453.94
2022-10-19T19:03:39.881Z,101447.50
2022-10-19T19:06:09.601Z,101454.94
2022-10-19T19:08:36.537Z,101450.16
2022-10-19T19:11:11.317Z,101442.63
2022-10-19T19:13:38.586Z,101448.13
2022-10-19T19:16:07.555Z,101439.09
2022-10-19T19:18:34.964Z,101423.44
2022-10-19T19:21:02.308Z,101430.66
2022-10-19T19:23:29.401Z,101419.88
2022-10-19T19:25:56.645Z,101410.25
2022-10-19T19:28:23.505Z,101403.28
2022-10-19T19:30:50.279Z,101398.38
2022-10-19T19:33:18.446Z,101394.19
2022-10-19T19:35:46.520Z,101398.59
2022-10-19T19:38:15.214Z,101397.75
2022-10-19T19:40:43.413Z,101388.13
2022-10-19T19:43:10.853Z,101382.50
2022-10-19T19:45:38.353Z,101382.75
2022-10-19T19:48:06.735Z,101370.69
2022-10-19T19:50:38.214Z,101374.88
2022-10-19T19:53:05.162Z,101379.94
2022-10-19T19:55:38.167Z,101367.22
2022-10-19T19:58:05.952Z,101359.81
2022-10-19T20:00:32.890Z,101360.22
2022-10-19T20:02:59.996Z,101355.19
2022-10-19T20:05:28.420Z,101365.81
2022-10-19T20:07:56.627Z,101367.28
2022-10-19T20:10:23.777Z,101368.59
2022-10-19T20:12:50.714Z,101360.94
2022-10-19T20:15:18.394Z,101357.47
2022-10-19T20:17:45.548Z,101369.22
2022-10-19T20:20:13.694Z,101366.91
2022-10-19T20:22:45.094Z,101368.59
2022-10-19T20:25:13.302Z,101378.97
2022-10-19T20:27:40.443Z,101371.34
2022-10-19T20:30:08.710Z,101358.34
2022-10-19T20:32:36.129Z,101359.72
2022-10-19T20:35:03.816Z,101349.75
2022-10-19T20:37:31.380Z,101350.28
2022-10-19T20:39:58.395Z,101360.72
2022-10-19T20:42:26.532Z,101345.59
2022-10-19T20:44:54.745Z,101347.19
2022-10-19T20:47:21.595Z,101336.69
2022-10-19T20:49:48.438Z,101343.31
2022-10-19T20:52:15.187Z,101334.34
2022-10-19T20:54:42.064Z,101334.03
2022-10-19T20:57:08.879Z,101328.78
2022-10-19T20:59:38.750Z,101327.66
2022-10-19T21:02:05.523Z,101324.50
2022-10-19T21:04:32.364Z,101329.97
2022-10-19T21:07:00.165Z,101337.59
2022-10-19T21:09:26.939Z,101326.16
2022-10-19T21:11:53.817Z,101330.13
2022-10-19T21:14:25.336Z,101329.97
2022-10-19T21:16:56.910Z,101321.44
2022-10-19T21:19:25.612Z,101312.34
2022-10-19T21:21:57.738Z,101315.22
2022-10-19T21:24:26.796Z,101296.00
2022-10-19T21:26:53.887Z,101300.34
2022-10-19T21:29:20.845Z,101310.19
2022-10-19T21:31:49.503Z,101306.56
2022-10-19T21:34:19.922Z,101298.66
2022-10-19T21:36:47.004Z,101309.72
2022-10-19T21:39:13.864Z,101285.97
2022-10-19T21:41:40.663Z,101289.00
2022-10-19T21:44:07.451Z,101269.75
2022-10-19T21:46:34.565Z,101280.00
2022-10-19T21:49:01.396Z,101279.50
2022-10-19T21:51:35.104Z,101283.13
2022-10-19T21:54:02.281Z,101272.63
2022-10-19T21:56:29.553Z,101270.44
2022-10-19T21:58:56.734Z,101261.06
2022-10-19T22:01:25.550Z,101258.31
2022-10-19T22:03:56.139Z,101254.22
2022-10-19T22:06:23.089Z,101253.41
2022-10-19T22:08:51.369Z,101255.63
2022-10-19T22:11:18.152Z,101266.50
2022-10-19T22:13:44.933Z,101263.97
2022-10-19T22:16:14.387Z,101252.91
2022-10-19T22:18:41.968Z,101256.31
2022-10-19T22:21:10.728Z,101248.94
2022-10-19T22:23:37.555Z,101238.03
2022-10-19T22:26:13.613Z,101241.38
2022-10-19T22:28:40.837Z,101243.59
2022-10-19T22:31:07.735Z,101237.56
2022-10-19T22:33:34.798Z,101238.19
2022-10-19T22:36:03.410Z,101227.25
2022-10-19T22:38:30.433Z,101233.13
2022-10-19T22:40:57.215Z,101237.84
2022-10-19T22:43:25.422Z,101234.88
2022-10-19T22:45:52.215Z,101222.84
2022-10-19T22:48:19.541Z,101232.75
2022-10-19T22:50:46.574Z,101215.97
2022-10-19T22:53:13.611Z,101209.06
2022-10-19T22:55:40.663Z,101222.78
2022-10-19T22:58:08.456Z,101221.16
2022-10-19T23:00:36.931Z,101223.22
2022-10-19T23:03:04.437Z,101221.78
2022-10-19T23:05:31.452Z,101210.88
2022-10-19T23:07:58.337Z,101202.91
2022-10-19T23:10:25.687Z,101210.88
2022-10-19T23:12:54.023Z,101219.53
2022-10-19T23:15:21.597Z,101217.66
2022-10-19T23:17:49.787Z,101211.09
2022-10-19T23:20:16.631Z,101210.88
2022-10-19T23:22:43.372Z,101218.75
2022-10-19T23:25:10.165Z,101216.56
2022-10-19T23:27:37.484Z,101210.69
2022-10-19T23:30:05.251Z,101211.31
2022-10-19T23:32:32.160Z,101206.03
2022-10-19T23:35:00.327Z,101206.59
2022-10-19T23:37:27.218Z,101196.25
2022-10-19T23:39:54.039Z,101186.97
2022-10-19T23:42:20.749Z,101183.63
2022-10-19T23:44:47.549Z,101171.59
2022-10-19T23:47:14.284Z,101163.63
2022-10-19T23:49:41.142Z,101151.41
2022-10-19T23:52:09.253Z,101156.06
2022-10-19T23:54:36.156Z,101152.69
2022-10-19T23:57:03.053Z,101147.84
2022-10-19T23:59:29.835Z,101140.38
